sensor_id;sensor_type;location;lat;lon;timestamp;temperature;humidity
9383;DHT22;4731;49.708;10.816;2023-05-07T00:00:01;12.90;99.90
9383;DHT22;4731;49.708;10.816;2023-05-07T00:02:29;12.80;99.90
9383;DHT22;4731;49.708;10.816;2023-05-07T00:04:57;12.80;99.90
9383;DHT22;4731;49.708;10.816;2023-05-07T00:07:24;12.90;99.90
9383;DHT22;4731;49.708;10.816;2023-05-07T00:09:50;12.80;99.90
9383;DHT22;4731;49.708;10.816;2023-05-07T00:12:17;13.10;99.90
9383;DHT22;4731;49.708;10.816;2023-05-07T00:14:44;12.80;99.90
9383;DHT22;4731;49.708;10.816;2023-05-07T00:17:11;13.60;99.90
9383;DHT22;4731;49.708;10.816;2023-05-07T00:19:37;12.80;99.90
9383;DHT22;4731;49.708;10.816;2023-05-07T00:22:06;12.80;99.90
9383;DHT22;4731;49.708;10.816;2023-05-07T00:24:33;12.80;99.90
9383;DHT22;4731;49.708;10.816;2023-05-07T00:27:00;12.80;99.90
9383;DHT22;4731;49.708;10.816;2023-05-07T00:29:27;12.80;99.90
9383;DHT22;4731;49.708;10.816;2023-05-07T00:31:53;12.80;99.90
9383;DHT22;4731;49.708;10.816;2023-05-07T00:34:20;12.80;99.90
9383;DHT22;4731;49.708;10.816;2023-05-07T00:36:47;12.80;99.90
9383;DHT22;4731;49.708;10.816;2023-05-07T00:39:16;12.80;99.90
9383;DHT22;4731;49.708;10.816;2023-05-07T00:41:42;12.90;99.90
9383;DHT22;4731;49.708;10.816;2023-05-07T00:44:09;13.40;99.90
9383;DHT22;4731;49.708;10.816;2023-05-07T00:46:36;12.70;99.90
9383;DHT22;4731;49.708;10.816;2023-05-07T00:49:03;14.40;99.90
9383;DHT22;4731;49.708;10.816;2023-05-07T00:51:30;13.70;99.90
9383;DHT22;4731;49.708;10.816;2023-05-07T00:53:57;12.70;99.90
9383;DHT22;4731;49.708;10.816;2023-05-07T00:56:26;13.50;99.90
9383;DHT22;4731;49.708;10.816;2023-05-07T00:58:53;12.70;99.90
9383;DHT22;4731;49.708;10.816;2023-05-07T01:01:20;15.00;99.90
9383;DHT22;4731;49.708;10.816;2023-05-07T01:03:46;12.70;99.90
9383;DHT22;4731;49.708;10.816;2023-05-07T01:06:13;14.50;99.90
9383;DHT22;4731;49.708;10.816;2023-05-07T01:08:42;12.70;99.90
9383;DHT22;4731;49.708;10.816;2023-05-07T01:11:10;12.70;99.90
9383;DHT22;4731;49.708;10.816;2023-05-07T01:13:39;12.70;99.90
9383;DHT22;4731;49.708;10.816;2023-05-07T01:16:06;15.10;99.90
9383;DHT22;4731;49.708;10.816;2023-05-07T01:18:35;12.70;99.90
9383;DHT22;4731;49.708;10.816;2023-05-07T01:21:02;12.70;99.90
9383;DHT22;4731;49.708;10.816;2023-05-07T01:23:33;12.70;99.90
9383;DHT22;4731;49.708;10.816;2023-05-07T01:26:00;12.70;99.90
9383;DHT22;4731;49.708;10.816;2023-05-07T01:28:27;12.60;99.90
9383;DHT22;4731;49.708;10.816;2023-05-07T01:30:56;12.70;99.90
9383;DHT22;4731;49.708;10.816;2023-05-07T01:33:30;12.70;99.90
9383;DHT22;4731;49.708;10.816;2023-05-07T01:35:59;12.70;99.90
9383;DHT22;4731;49.708;10.816;2023-05-07T01:38:28;14.80;99.90
9383;DHT22;4731;49.708;10.816;2023-05-07T01:40:57;12.70;99.90
9383;DHT22;4731;49.708;10.816;2023-05-07T01:43:24;12.70;99.90
9383;DHT22;4731;49.708;10.816;2023-05-07T01:45:52;12.80;99.90
9383;DHT22;4731;49.708;10.816;2023-05-07T01:48:19;12.70;99.90
9383;DHT22;4731;49.708;10.816;2023-05-07T01:50:46;12.80;99.90
9383;DHT22;4731;49.708;10.816;2023-05-07T01:53:13;12.80;99.90
9383;DHT22;4731;49.708;10.816;2023-05-07T01:55:40;12.80;99.90
9383;DHT22;4731;49.708;10.816;2023-05-07T01:58:08;14.60;99.90
9383;DHT22;4731;49.708;10.816;2023-05-07T02:00:35;12.70;99.90
9383;DHT22;4731;49.708;10.816;2023-05-07T02:03:01;12.90;99.90
9383;DHT22;4731;49.708;10.816;2023-05-07T02:05:28;12.80;99.90
9383;DHT22;4731;49.708;10.816;2023-05-07T02:07:55;12.80;99.90
9383;DHT22;4731;49.708;10.816;2023-05-07T02:10:22;12.90;99.90
9383;DHT22;4731;49.708;10.816;2023-05-07T02:12:48;12.80;99.90
9383;DHT22;4731;49.708;10.816;2023-05-07T02:15:16;14.50;99.90
9383;DHT22;4731;49.708;10.816;2023-05-07T02:17:58;12.80;99.90
9383;DHT22;4731;49.708;10.816;2023-05-07T02:20:25;12.70;99.90
9383;DHT22;4731;49.708;10.816;2023-05-07T02:22:52;12.60;99.90
9383;DHT22;4731;49.708;10.816;2023-05-07T02:25:19;12.60;99.90
9383;DHT22;4731;49.708;10.816;2023-05-07T02:27:45;12.60;99.90
9383;DHT22;4731;49.708;10.816;2023-05-07T02:30:13;12.60;99.90
9383;DHT22;4731;49.708;10.816;2023-05-07T02:32:41;12.70;99.90
9383;DHT22;4731;49.708;10.816;2023-05-07T02:35:09;12.70;99.90
9383;DHT22;4731;49.708;10.816;2023-05-07T02:37:36;12.70;99.90
9383;DHT22;4731;49.708;10.816;2023-05-07T02:40:04;12.70;99.90
9383;DHT22;4731;49.708;10.816;2023-05-07T02:42:31;12.70;99.90
9383;DHT22;4731;49.708;10.816;2023-05-07T02:44:57;12.60;99.90
9383;DHT22;4731;49.708;10.816;2023-05-07T02:47:24;12.60;99.90
9383;DHT22;4731;49.708;10.816;2023-05-07T02:49:53;12.50;99.90
9383;DHT22;4731;49.708;10.816;2023-05-07T02:52:20;12.50;99.90
9383;DHT22;4731;49.708;10.816;2023-05-07T02:54:47;12.60;99.90
9383;DHT22;4731;49.708;10.816;2023-05-07T02:57:14;12.50;99.90
9383;DHT22;4731;49.708;10.816;2023-05-07T02:59:41;14.40;99.90
9383;DHT22;4731;49.708;10.816;2023-05-07T03:02:08;12.50;99.90
9383;DHT22;4731;49.708;10.816;2023-05-07T03:04:35;12.40;99.90
9383;DHT22;4731;49.708;10.816;2023-05-07T03:07:03;12.40;99.90
9383;DHT22;4731;49.708;10.816;2023-05-07T03:09:30;12.40;99.90
9383;DHT22;4731;49.708;10.816;2023-05-07T03:11:57;12.30;99.90
9383;DHT22;4731;49.708;10.816;2023-05-07T03:14:24;12.30;99.90
9383;DHT22;4731;49.708;10.816;2023-05-07T03:16:50;12.20;99.90
9383;DHT22;4731;49.708;10.816;2023-05-07T03:19:17;12.10;99.90
9383;DHT22;4731;49.708;10.816;2023-05-07T03:21:44;12.00;99.90
9383;DHT22;4731;49.708;10.816;2023-05-07T03:24:12;12.00;99.90
9383;DHT22;4731;49.708;10.816;2023-05-07T03:26:39;11.90;99.90
9383;DHT22;4731;49.708;10.816;2023-05-07T03:29:06;11.80;99.90
9383;DHT22;4731;49.708;10.816;2023-05-07T03:31:33;11.80;99.90
9383;DHT22;4731;49.708;10.816;2023-05-07T03:34:00;11.70;99.90
9383;DHT22;4731;49.708;10.816;2023-05-07T03:36:26;11.70;99.90
9383;DHT22;4731;49.708;10.816;2023-05-07T03:38:53;13.90;99.90
9383;DHT22;4731;49.708;10.816;2023-05-07T03:41:21;11.60;99.90
9383;DHT22;4731;49.708;10.816;2023-05-07T03:43:48;11.60;99.90
9383;DHT22;4731;49.708;10.816;2023-05-07T03:46:15;11.60;99.90
9383;DHT22;4731;49.708;10.816;2023-05-07T03:48:41;11.60;99.90
9383;DHT22;4731;49.708;10.816;2023-05-07T03:51:08;11.50;99.90
9383;DHT22;4731;49.708;10.816;2023-05-07T03:53:35;11.50;99.90
9383;DHT22;4731;49.708;10.816;2023-05-07T03:56:02;12.90;99.90
9383;DHT22;4731;49.708;10.816;2023-05-07T03:58:30;11.50;99.90
9383;DHT22;4731;49.708;10.816;2023-05-07T04:00:57;11.50;99.90
9383;DHT22;4731;49.708;10.816;2023-05-07T04:03:24;11.50;99.90
9383;DHT22;4731;49.708;10.816;2023-05-07T04:05:51;11.50;99.90
9383;DHT22;4731;49.708;10.816;2023-05-07T04:08:17;13.70;99.90
9383;DHT22;4731;49.708;10.816;2023-05-07T04:10:44;11.60;99.90
9383;DHT22;4731;49.708;10.816;2023-05-07T04:13:11;11.60;99.90
9383;DHT22;4731;49.708;10.816;2023-05-07T04:15:39;11.70;99.90
9383;DHT22;4731;49.708;10.816;2023-05-07T04:18:06;11.80;99.90
9383;DHT22;4731;49.708;10.816;2023-05-07T04:20:34;12.00;99.90
9383;DHT22;4731;49.708;10.816;2023-05-07T04:23:01;11.90;99.90
9383;DHT22;4731;49.708;10.816;2023-05-07T04:25:28;12.00;99.90
9383;DHT22;4731;49.708;10.816;2023-05-07T04:27:56;12.00;99.90
9383;DHT22;4731;49.708;10.816;2023-05-07T04:30:22;12.30;99.90
9383;DHT22;4731;49.708;10.816;2023-05-07T04:32:51;12.40;99.90
9383;DHT22;4731;49.708;10.816;2023-05-07T04:35:19;10.60;99.90
9383;DHT22;4731;49.708;10.816;2023-05-07T04:37:47;12.40;99.90
9383;DHT22;4731;49.708;10.816;2023-05-07T04:40:14;12.50;99.90
9383;DHT22;4731;49.708;10.816;2023-05-07T04:42:41;12.60;99.90
9383;DHT22;4731;49.708;10.816;2023-05-07T04:45:09;12.90;99.90
9383;DHT22;4731;49.708;10.816;2023-05-07T04:47:37;12.80;99.90
9383;DHT22;4731;49.708;10.816;2023-05-07T04:50:06;12.80;99.90
9383;DHT22;4731;49.708;10.816;2023-05-07T04:52:33;12.80;99.90
9383;DHT22;4731;49.708;10.816;2023-05-07T04:55:00;13.10;99.90
9383;DHT22;4731;49.708;10.816;2023-05-07T04:57:27;14.30;99.90
9383;DHT22;4731;49.708;10.816;2023-05-07T04:59:54;13.10;99.90
9383;DHT22;4731;49.708;10.816;2023-05-07T05:02:20;13.20;99.90
9383;DHT22;4731;49.708;10.816;2023-05-07T05:04:47;13.40;99.90
9383;DHT22;4731;49.708;10.816;2023-05-07T05:07:15;13.70;99.90
9383;DHT22;4731;49.708;10.816;2023-05-07T05:09:42;13.90;99.90
9383;DHT22;4731;49.708;10.816;2023-05-07T05:12:10;14.00;99.90
9383;DHT22;4731;49.708;10.816;2023-05-07T05:14:37;14.20;99.90
9383;DHT22;4731;49.708;10.816;2023-05-07T05:17:03;14.20;99.90
9383;DHT22;4731;49.708;10.816;2023-05-07T05:19:30;14.30;99.90
9383;DHT22;4731;49.708;10.816;2023-05-07T05:21:57;14.40;99.90
9383;DHT22;4731;49.708;10.816;2023-05-07T05:24:25;14.40;99.90
9383;DHT22;4731;49.708;10.816;2023-05-07T05:26:53;14.50;99.90
9383;DHT22;4731;49.708;10.816;2023-05-07T05:29:20;14.60;99.90
9383;DHT22;4731;49.708;10.816;2023-05-07T05:31:46;14.80;99.90
9383;DHT22;4731;49.708;10.816;2023-05-07T05:34:13;14.80;99.90
9383;DHT22;4731;49.708;10.816;2023-05-07T05:36:40;15.00;99.90
9383;DHT22;4731;49.708;10.816;2023-05-07T05:39:07;15.10;99.90
9383;DHT22;4731;49.708;10.816;2023-05-07T05:41:36;15.10;99.90
9383;DHT22;4731;49.708;10.816;2023-05-07T05:44:02;15.20;99.90
9383;DHT22;4731;49.708;10.816;2023-05-07T05:46:30;15.30;99.90
9383;DHT22;4731;49.708;10.816;2023-05-07T05:48:56;17.30;99.90
9383;DHT22;4731;49.708;10.816;2023-05-07T05:51:23;15.80;99.90
9383;DHT22;4731;49.708;10.816;2023-05-07T05:53:50;15.80;99.90
9383;DHT22;4731;49.708;10.816;2023-05-07T05:56:17;15.80;99.90
9383;DHT22;4731;49.708;10.816;2023-05-07T05:58:46;15.70;99.90
9383;DHT22;4731;49.708;10.816;2023-05-07T06:01:13;15.60;99.90
9383;DHT22;4731;49.708;10.816;2023-05-07T06:03:40;15.60;99.90
9383;DHT22;4731;49.708;10.816;2023-05-07T06:06:06;15.40;99.90
9383;DHT22;4731;49.708;10.816;2023-05-07T06:08:33;15.30;99.90
9383;DHT22;4731;49.708;10.816;2023-05-07T06:11:01;15.50;99.90
9383;DHT22;4731;49.708;10.816;2023-05-07T06:13:28;15.60;99.90
9383;DHT22;4731;49.708;10.816;2023-05-07T06:15:56;15.60;99.90
9383;DHT22;4731;49.708;10.816;2023-05-07T06:18:23;15.80;99.90
9383;DHT22;4731;49.708;10.816;2023-05-07T06:20:51;15.80;99.90
9383;DHT22;4731;49.708;10.816;2023-05-07T06:23:18;15.70;99.90
9383;DHT22;4731;49.708;10.816;2023-05-07T06:25:48;15.80;99.90
9383;DHT22;4731;49.708;10.816;2023-05-07T06:28:15;15.80;99.90
9383;DHT22;4731;49.708;10.816;2023-05-07T06:30:42;15.60;99.90
9383;DHT22;4731;49.708;10.816;2023-05-07T06:33:10;15.80;99.90
9383;DHT22;4731;49.708;10.816;2023-05-07T06:35:36;15.80;99.90
9383;DHT22;4731;49.708;10.816;2023-05-07T06:38:03;15.90;99.90
9383;DHT22;4731;49.708;10.816;2023-05-07T06:40:30;17.90;99.90
9383;DHT22;4731;49.708;10.816;2023-05-07T06:42:57;15.90;99.90
9383;DHT22;4731;49.708;10.816;2023-05-07T06:45:23;16.10;99.90
9383;DHT22;4731;49.708;10.816;2023-05-07T06:47:50;18.30;99.90
9383;DHT22;4731;49.708;10.816;2023-05-07T06:50:18;16.50;99.90
9383;DHT22;4731;49.708;10.816;2023-05-07T06:52:45;16.50;99.90
9383;DHT22;4731;49.708;10.816;2023-05-07T06:55:12;16.50;99.90
9383;DHT22;4731;49.708;10.816;2023-05-07T06:57:39;16.40;99.90
9383;DHT22;4731;49.708;10.816;2023-05-07T07:00:06;16.50;99.90
9383;DHT22;4731;49.708;10.816;2023-05-07T07:02:35;16.70;99.90
9383;DHT22;4731;49.708;10.816;2023-05-07T07:05:03;17.60;99.90
9383;DHT22;4731;49.708;10.816;2023-05-07T07:07:31;16.90;99.90
9383;DHT22;4731;49.708;10.816;2023-05-07T07:10:00;17.10;99.90
9383;DHT22;4731;49.708;10.816;2023-05-07T07:12:27;17.30;99.90
9383;DHT22;4731;49.708;10.816;2023-05-07T07:14:56;19.10;99.90
9383;DHT22;4731;49.708;10.816;2023-05-07T07:17:23;17.00;99.90
9383;DHT22;4731;49.708;10.816;2023-05-07T07:19:50;16.90;99.90
9383;DHT22;4731;49.708;10.816;2023-05-07T07:22:17;16.10;99.90
9383;DHT22;4731;49.708;10.816;2023-05-07T07:24:45;17.00;99.90
9383;DHT22;4731;49.708;10.816;2023-05-07T07:27:12;16.90;99.90
9383;DHT22;4731;49.708;10.816;2023-05-07T07:29:39;16.90;99.90
9383;DHT22;4731;49.708;10.816;2023-05-07T07:32:05;17.10;99.90
9383;DHT22;4731;49.708;10.816;2023-05-07T07:34:32;17.40;99.90
9383;DHT22;4731;49.708;10.816;2023-05-07T07:36:59;17.50;99.90
9383;DHT22;4731;49.708;10.816;2023-05-07T07:39:30;17.70;99.90
9383;DHT22;4731;49.708;10.816;2023-05-07T07:41:58;17.40;99.90
9383;DHT22;4731;49.708;10.816;2023-05-07T07:44:26;20.10;99.90
9383;DHT22;4731;49.708;10.816;2023-05-07T07:46:52;17.80;99.90
9383;DHT22;4731;49.708;10.816;2023-05-07T07:49:19;17.80;99.90
9383;DHT22;4731;49.708;10.816;2023-05-07T07:51:46;17.90;99.90
9383;DHT22;4731;49.708;10.816;2023-05-07T07:54:12;18.60;99.90
9383;DHT22;4731;49.708;10.816;2023-05-07T07:56:39;18.30;99.90
9383;DHT22;4731;49.708;10.816;2023-05-07T07:59:07;19.10;99.90
9383;DHT22;4731;49.708;10.816;2023-05-07T08:01:34;20.00;99.90
9383;DHT22;4731;49.708;10.816;2023-05-07T08:04:01;20.80;99.90
9383;DHT22;4731;49.708;10.816;2023-05-07T08:06:28;23.10;99.90
9383;DHT22;4731;49.708;10.816;2023-05-07T08:08:55;23.30;99.90
9383;DHT22;4731;49.708;10.816;2023-05-07T08:11:22;22.60;99.90
9383;DHT22;4731;49.708;10.816;2023-05-07T08:13:49;21.20;99.90
9383;DHT22;4731;49.708;10.816;2023-05-07T08:16:17;20.30;99.90
9383;DHT22;4731;49.708;10.816;2023-05-07T08:18:43;20.30;99.90
9383;DHT22;4731;49.708;10.816;2023-05-07T08:21:10;20.50;99.90
9383;DHT22;4731;49.708;10.816;2023-05-07T08:23:37;20.90;99.90
9383;DHT22;4731;49.708;10.816;2023-05-07T08:26:04;22.80;99.90
9383;DHT22;4731;49.708;10.816;2023-05-07T08:28:30;21.40;99.90
9383;DHT22;4731;49.708;10.816;2023-05-07T08:30:57;23.00;99.90
9383;DHT22;4731;49.708;10.816;2023-05-07T08:33:27;20.60;99.90
9383;DHT22;4731;49.708;10.816;2023-05-07T08:35:54;21.00;99.90
9383;DHT22;4731;49.708;10.816;2023-05-07T08:38:20;20.20;99.90
9383;DHT22;4731;49.708;10.816;2023-05-07T08:40:47;20.90;99.90
9383;DHT22;4731;49.708;10.816;2023-05-07T08:43:14;21.10;99.90
9383;DHT22;4731;49.708;10.816;2023-05-07T08:45:41;22.50;99.90
9383;DHT22;4731;49.708;10.816;2023-05-07T08:48:09;22.30;99.90
9383;DHT22;4731;49.708;10.816;2023-05-07T08:50:42;22.50;99.90
9383;DHT22;4731;49.708;10.816;2023-05-07T08:53:08;22.40;99.90
9383;DHT22;4731;49.708;10.816;2023-05-07T08:55:35;22.30;99.90
9383;DHT22;4731;49.708;10.816;2023-05-07T08:58:03;23.20;99.90
9383;DHT22;4731;49.708;10.816;2023-05-07T09:00:30;22.90;99.90
9383;DHT22;4731;49.708;10.816;2023-05-07T09:02:56;22.40;99.90
9383;DHT22;4731;49.708;10.816;2023-05-07T09:05:23;22.20;99.90
9383;DHT22;4731;49.708;10.816;2023-05-07T09:07:51;21.30;99.90
9383;DHT22;4731;49.708;10.816;2023-05-07T09:10:20;21.80;99.90
9383;DHT22;4731;49.708;10.816;2023-05-07T09:12:47;21.80;99.90
9383;DHT22;4731;49.708;10.816;2023-05-07T09:15:14;22.10;99.90
9383;DHT22;4731;49.708;10.816;2023-05-07T09:17:41;22.20;99.90
9383;DHT22;4731;49.708;10.816;2023-05-07T09:20:08;22.00;99.90
9383;DHT22;4731;49.708;10.816;2023-05-07T09:22:36;21.10;99.90
9383;DHT22;4731;49.708;10.816;2023-05-07T09:25:06;23.30;99.90
9383;DHT22;4731;49.708;10.816;2023-05-07T09:27:33;21.70;99.90
9383;DHT22;4731;49.708;10.816;2023-05-07T09:30:03;21.70;99.90
9383;DHT22;4731;49.708;10.816;2023-05-07T09:32:35;21.90;99.90
9383;DHT22;4731;49.708;10.816;2023-05-07T09:35:04;21.20;99.90
9383;DHT22;4731;49.708;10.816;2023-05-07T09:37:31;21.50;99.90
9383;DHT22;4731;49.708;10.816;2023-05-07T09:39:58;21.80;99.90
9383;DHT22;4731;49.708;10.816;2023-05-07T09:42:27;21.60;99.90
9383;DHT22;4731;49.708;10.816;2023-05-07T09:44:53;21.90;99.90
9383;DHT22;4731;49.708;10.816;2023-05-07T09:47:24;21.60;99.90
9383;DHT22;4731;49.708;10.816;2023-05-07T09:49:56;21.20;99.90
9383;DHT22;4731;49.708;10.816;2023-05-07T09:52:23;21.20;99.90
9383;DHT22;4731;49.708;10.816;2023-05-07T09:54:50;22.00;99.90
9383;DHT22;4731;49.708;10.816;2023-05-07T09:57:19;22.40;99.90
9383;DHT22;4731;49.708;10.816;2023-05-07T09:59:49;22.60;99.90
9383;DHT22;4731;49.708;10.816;2023-05-07T10:02:19;22.10;99.90
9383;DHT22;4731;49.708;10.816;2023-05-07T10:04:46;22.30;99.90
9383;DHT22;4731;49.708;10.816;2023-05-07T10:07:16;22.90;99.90
9383;DHT22;4731;49.708;10.816;2023-05-07T10:09:43;23.40;99.90
9383;DHT22;4731;49.708;10.816;2023-05-07T10:12:12;23.70;99.90
9383;DHT22;4731;49.708;10.816;2023-05-07T10:14:39;23.80;99.90
9383;DHT22;4731;49.708;10.816;2023-05-07T10:17:09;25.60;99.90
9383;DHT22;4731;49.708;10.816;2023-05-07T10:19:38;23.70;99.90
9383;DHT22;4731;49.708;10.816;2023-05-07T10:22:06;25.40;99.90
9383;DHT22;4731;49.708;10.816;2023-05-07T10:24:35;25.70;99.90
9383;DHT22;4731;49.708;10.816;2023-05-07T10:27:05;26.30;99.90
9383;DHT22;4731;49.708;10.816;2023-05-07T10:29:38;26.80;99.90
9383;DHT22;4731;49.708;10.816;2023-05-07T10:32:35;26.00;99.90
9383;DHT22;4731;49.708;10.816;2023-05-07T10:35:09;24.30;99.90
9383;DHT22;4731;49.708;10.816;2023-05-07T10:37:37;24.20;99.90
9383;DHT22;4731;49.708;10.816;2023-05-07T10:40:05;25.70;99.90
9383;DHT22;4731;49.708;10.816;2023-05-07T10:42:33;24.70;99.90
9383;DHT22;4731;49.708;10.816;2023-05-07T10:45:11;24.70;99.90
9383;DHT22;4731;49.708;10.816;2023-05-07T10:48:08;24.50;99.90
9383;DHT22;4731;49.708;10.816;2023-05-07T10:50:35;25.20;99.90
9383;DHT22;4731;49.708;10.816;2023-05-07T10:53:22;26.10;99.90
9383;DHT22;4731;49.708;10.816;2023-05-07T10:58:56;25.20;99.90
9383;DHT22;4731;49.708;10.816;2023-05-07T11:01:50;25.20;99.90
9383;DHT22;4731;49.708;10.816;2023-05-07T11:04:19;25.50;99.90
9383;DHT22;4731;49.708;10.816;2023-05-07T11:07:14;25.60;99.90
9383;DHT22;4731;49.708;10.816;2023-05-07T11:10:03;24.40;99.90
9383;DHT22;4731;49.708;10.816;2023-05-07T11:12:50;23.60;99.90
9383;DHT22;4731;49.708;10.816;2023-05-07T11:15:37;23.40;99.90
9383;DHT22;4731;49.708;10.816;2023-05-07T11:18:04;24.00;99.90
9383;DHT22;4731;49.708;10.816;2023-05-07T11:20:52;23.60;99.90
9383;DHT22;4731;49.708;10.816;2023-05-07T11:26:45;24.50;99.90
9383;DHT22;4731;49.708;10.816;2023-05-07T11:29:14;24.50;99.90
9383;DHT22;4731;49.708;10.816;2023-05-07T11:31:41;23.60;99.90
9383;DHT22;4731;49.708;10.816;2023-05-07T11:34:08;24.00;99.90
9383;DHT22;4731;49.708;10.816;2023-05-07T11:36:41;24.40;99.90
9383;DHT22;4731;49.708;10.816;2023-05-07T11:39:26;25.10;99.90
9383;DHT22;4731;49.708;10.816;2023-05-07T11:41:53;25.50;99.90
9383;DHT22;4731;49.708;10.816;2023-05-07T11:44:20;25.90;99.90
9383;DHT22;4731;49.708;10.816;2023-05-07T11:46:48;26.30;99.90
9383;DHT22;4731;49.708;10.816;2023-05-07T11:49:15;28.70;99.90
9383;DHT22;4731;49.708;10.816;2023-05-07T11:54:53;24.10;99.90
9383;DHT22;4731;49.708;10.816;2023-05-07T11:57:20;26.60;99.90
9383;DHT22;4731;49.708;10.816;2023-05-07T11:59:47;26.90;99.90
9383;DHT22;4731;49.708;10.816;2023-05-07T12:02:15;27.50;99.90
9383;DHT22;4731;49.708;10.816;2023-05-07T12:04:41;28.00;99.90
9383;DHT22;4731;49.708;10.816;2023-05-07T12:07:11;28.60;99.90
9383;DHT22;4731;49.708;10.816;2023-05-07T12:09:39;26.90;99.90
9383;DHT22;4731;49.708;10.816;2023-05-07T12:12:07;25.80;99.90
9383;DHT22;4731;49.708;10.816;2023-05-07T12:14:37;25.70;99.90
9383;DHT22;4731;49.708;10.816;2023-05-07T12:17:05;24.90;99.90
9383;DHT22;4731;49.708;10.816;2023-05-07T12:19:33;23.90;99.90
9383;DHT22;4731;49.708;10.816;2023-05-07T12:22:01;24.80;99.90
9383;DHT22;4731;49.708;10.816;2023-05-07T12:24:28;25.10;99.90
9383;DHT22;4731;49.708;10.816;2023-05-07T12:26:55;25.80;99.90
9383;DHT22;4731;49.708;10.816;2023-05-07T12:29:23;25.20;99.90
9383;DHT22;4731;49.708;10.816;2023-05-07T12:31:50;26.80;99.90
9383;DHT22;4731;49.708;10.816;2023-05-07T12:34:17;26.30;99.90
9383;DHT22;4731;49.708;10.816;2023-05-07T12:36:44;26.20;99.90
9383;DHT22;4731;49.708;10.816;2023-05-07T12:39:12;26.10;99.90
9383;DHT22;4731;49.708;10.816;2023-05-07T12:41:54;26.40;99.90
9383;DHT22;4731;49.708;10.816;2023-05-07T12:44:24;26.70;99.90
9383;DHT22;4731;49.708;10.816;2023-05-07T12:46:51;25.70;99.90
9383;DHT22;4731;49.708;10.816;2023-05-07T12:49:18;25.70;99.90
9383;DHT22;4731;49.708;10.816;2023-05-07T12:51:46;25.50;99.90
9383;DHT22;4731;49.708;10.816;2023-05-07T12:54:13;25.60;99.90
9383;DHT22;4731;49.708;10.816;2023-05-07T12:56:40;25.20;99.90
9383;DHT22;4731;49.708;10.816;2023-05-07T12:59:07;24.60;99.90
9383;DHT22;4731;49.708;10.816;2023-05-07T13:01:35;25.00;99.90
9383;DHT22;4731;49.708;10.816;2023-05-07T13:04:03;24.60;99.90
9383;DHT22;4731;49.708;10.816;2023-05-07T13:06:31;24.20;99.90
9383;DHT22;4731;49.708;10.816;2023-05-07T13:08:57;24.70;99.90
9383;DHT22;4731;49.708;10.816;2023-05-07T13:11:24;25.20;99.90
9383;DHT22;4731;49.708;10.816;2023-05-07T13:13:51;25.50;99.90
9383;DHT22;4731;49.708;10.816;2023-05-07T13:16:18;25.00;99.90
9383;DHT22;4731;49.708;10.816;2023-05-07T13:18:46;24.60;99.90
9383;DHT22;4731;49.708;10.816;2023-05-07T13:21:13;25.10;99.90
9383;DHT22;4731;49.708;10.816;2023-05-07T13:23:40;25.70;99.90
9383;DHT22;4731;49.708;10.816;2023-05-07T13:26:06;26.30;99.90
9383;DHT22;4731;49.708;10.816;2023-05-07T13:28:33;27.50;99.90
9383;DHT22;4731;49.708;10.816;2023-05-07T13:31:00;26.90;99.90
9383;DHT22;4731;49.708;10.816;2023-05-07T13:33:28;26.90;99.90
9383;DHT22;4731;49.708;10.816;2023-05-07T13:35:56;26.90;99.90
9383;DHT22;4731;49.708;10.816;2023-05-07T13:38:23;26.90;99.90
9383;DHT22;4731;49.708;10.816;2023-05-07T13:40:50;26.90;99.90
9383;DHT22;4731;49.708;10.816;2023-05-07T13:43:16;27.30;99.90
9383;DHT22;4731;49.708;10.816;2023-05-07T13:45:44;26.60;99.90
9383;DHT22;4731;49.708;10.816;2023-05-07T13:48:11;26.80;99.90
9383;DHT22;4731;49.708;10.816;2023-05-07T13:50:37;26.50;99.90
9383;DHT22;4731;49.708;10.816;2023-05-07T13:53:07;26.80;99.90
9383;DHT22;4731;49.708;10.816;2023-05-07T13:55:34;26.20;99.90
9383;DHT22;4731;49.708;10.816;2023-05-07T13:58:02;25.60;99.90
9383;DHT22;4731;49.708;10.816;2023-05-07T14:00:29;25.60;99.90
9383;DHT22;4731;49.708;10.816;2023-05-07T14:02:56;26.20;99.90
9383;DHT22;4731;49.708;10.816;2023-05-07T14:05:23;28.50;99.90
9383;DHT22;4731;49.708;10.816;2023-05-07T14:07:51;26.20;99.90
9383;DHT22;4731;49.708;10.816;2023-05-07T14:10:19;26.30;99.90
9383;DHT22;4731;49.708;10.816;2023-05-07T14:12:46;26.20;99.90
9383;DHT22;4731;49.708;10.816;2023-05-07T14:15:13;26.00;99.90
9383;DHT22;4731;49.708;10.816;2023-05-07T14:17:41;26.20;99.90
9383;DHT22;4731;49.708;10.816;2023-05-07T14:20:09;25.80;99.90
9383;DHT22;4731;49.708;10.816;2023-05-07T14:22:36;25.90;99.90
9383;DHT22;4731;49.708;10.816;2023-05-07T14:25:03;25.30;99.90
9383;DHT22;4731;49.708;10.816;2023-05-07T14:27:32;25.30;99.90
9383;DHT22;4731;49.708;10.816;2023-05-07T14:29:58;26.80;99.90
9383;DHT22;4731;49.708;10.816;2023-05-07T14:32:25;25.00;99.90
9383;DHT22;4731;49.708;10.816;2023-05-07T14:34:54;25.00;99.90
9383;DHT22;4731;49.708;10.816;2023-05-07T14:37:21;24.70;99.90
9383;DHT22;4731;49.708;10.816;2023-05-07T14:39:48;24.30;99.90
9383;DHT22;4731;49.708;10.816;2023-05-07T14:42:15;24.20;99.90
9383;DHT22;4731;49.708;10.816;2023-05-07T14:44:44;24.40;99.90
9383;DHT22;4731;49.708;10.816;2023-05-07T14:47:12;24.20;99.90
9383;DHT22;4731;49.708;10.816;2023-05-07T14:49:38;23.90;99.90
9383;DHT22;4731;49.708;10.816;2023-05-07T14:52:06;24.30;99.90
9383;DHT22;4731;49.708;10.816;2023-05-07T14:54:33;24.40;99.90
9383;DHT22;4731;49.708;10.816;2023-05-07T14:57:00;24.80;99.90
9383;DHT22;4731;49.708;10.816;2023-05-07T14:59:27;24.20;99.90
9383;DHT22;4731;49.708;10.816;2023-05-07T15:01:55;24.20;99.90
9383;DHT22;4731;49.708;10.816;2023-05-07T15:04:23;24.40;99.90
9383;DHT22;4731;49.708;10.816;2023-05-07T15:06:50;24.60;99.90
9383;DHT22;4731;49.708;10.816;2023-05-07T15:09:17;24.70;99.90
9383;DHT22;4731;49.708;10.816;2023-05-07T15:11:44;25.20;99.90
9383;DHT22;4731;49.708;10.816;2023-05-07T15:14:11;24.60;99.90
9383;DHT22;4731;49.708;10.816;2023-05-07T15:16:37;24.20;99.90
9383;DHT22;4731;49.708;10.816;2023-05-07T15:19:06;24.30;99.90
9383;DHT22;4731;49.708;10.816;2023-05-07T15:21:32;24.30;99.90
9383;DHT22;4731;49.708;10.816;2023-05-07T15:24:01;24.20;99.90
9383;DHT22;4731;49.708;10.816;2023-05-07T15:26:27;24.00;99.90
9383;DHT22;4731;49.708;10.816;2023-05-07T15:28:54;23.80;99.90
9383;DHT22;4731;49.708;10.816;2023-05-07T15:31:22;23.80;99.90
9383;DHT22;4731;49.708;10.816;2023-05-07T15:33:49;23.80;99.90
9383;DHT22;4731;49.708;10.816;2023-05-07T15:36:19;23.90;99.90
9383;DHT22;4731;49.708;10.816;2023-05-07T15:38:46;23.60;99.90
9383;DHT22;4731;49.708;10.816;2023-05-07T15:41:13;23.60;99.90
9383;DHT22;4731;49.708;10.816;2023-05-07T15:43:44;22.60;99.90
9383;DHT22;4731;49.708;10.816;2023-05-07T15:46:12;25.90;99.90
9383;DHT22;4731;49.708;10.816;2023-05-07T15:48:39;23.40;99.90
9383;DHT22;4731;49.708;10.816;2023-05-07T15:51:05;23.30;99.90
9383;DHT22;4731;49.708;10.816;2023-05-07T15:53:35;23.30;99.90
9383;DHT22;4731;49.708;10.816;2023-05-07T15:56:03;23.10;99.90
9383;DHT22;4731;49.708;10.816;2023-05-07T15:58:31;23.10;99.90